createdAt,value
2023-01-09T00:01:27.961Z,101574.77
2023-01-09T00:03:55.032Z,101573.75
2023-01-09T00:06:22.019Z,101565.46
2023-01-09T00:08:49.064Z,101568.06
2023-01-09T00:13:58.048Z,101583.16
2023-01-09T00:16:25.066Z,101587.12
2023-01-09T00:18:53.495Z,101586.67
2023-01-09T00:21:20.449Z,101586.77
2023-01-09T00:23:47.880Z,101584.95
2023-01-09T00:26:18.006Z,101586.30
2023-01-09T00:28:48.870Z,101584.73
2023-01-09T00:31:16.573Z,101582.59
2023-01-09T00:33:59.512Z,101584.48
2023-01-09T00:36:26.750Z,101580.73
2023-01-09T00:38:53.703Z,101579.98
2023-01-09T00:41:30.316Z,101574.20
2023-01-09T00:43:58.923Z,101570.04
2023-01-09T00:46:31.937Z,101565.59
2023-01-09T00:48:58.882Z,101562.34
2023-01-09T00:51:25.915Z,101569.95
2023-01-09T00:53:52.868Z,101562.20
2023-01-09T00:56:20.229Z,101555.05
2023-01-09T00:58:47.183Z,101548.85
2023-01-09T01:01:14.249Z,101540.39
2023-01-09T01:03:41.419Z,101539.84
2023-01-09T01:06:27.057Z,101534.02
2023-01-09T01:08:55.977Z,101530.55
2023-01-09T01:11:23.062Z,101522.03
2023-01-09T01:13:50.185Z,101513.33
2023-01-09T01:16:18.651Z,101514.35
2023-01-09T01:18:45.722Z,101512.77
2023-01-09T01:21:13.507Z,101510.66
2023-01-09T01:23:40.463Z,101509.85
2023-01-09T01:26:09.160Z,101506.95
2023-01-09T01:28:36.281Z,101503.14
2023-01-09T01:31:03.426Z,101498.23
2023-01-09T01:33:30.539Z,101494.28
2023-01-09T01:36:17.740Z,101494.43
2023-01-09T01:38:44.832Z,101487.55
2023-01-09T01:41:11.921Z,101480.64
2023-01-09T01:43:53.234Z,101478.52
2023-01-09T01:46:20.258Z,101471.70
2023-01-09T01:48:48.607Z,101458.77
2023-01-09T01:51:17.087Z,101452.77
2023-01-09T01:53:46.688Z,101456.64
2023-01-09T01:56:24.788Z,101456.05
2023-01-09T01:59:22.902Z,101456.95
2023-01-09T02:01:51.815Z,101455.16
2023-01-09T02:04:18.926Z,101457.34
2023-01-09T02:06:47.397Z,101457.11
2023-01-09T02:09:15.465Z,101449.10
2023-01-09T02:11:46.441Z,101446.27
2023-01-09T02:14:13.896Z,101446.40
2023-01-09T02:16:40.917Z,101446.73
2023-01-09T02:19:45.731Z,101443.16
2023-01-09T02:22:51.079Z,101444.95
2023-01-09T02:25:45.982Z,101438.66
2023-01-09T02:28:50.782Z,101430.55
2023-01-09T02:31:22.407Z,101430.78
2023-01-09T02:34:00.148Z,101428.24
2023-01-09T02:36:49.105Z,101429.96
2023-01-09T02:39:33.624Z,101425.60
2023-01-09T02:42:06.903Z,101427.06
2023-01-09T02:44:38.288Z,101418.90
2023-01-09T02:47:24.022Z,101421.21
2023-01-09T02:49:54.236Z,101415.10
2023-01-09T02:52:38.031Z,101407.40
2023-01-09T02:55:42.925Z,101404.80
2023-01-09T02:58:40.002Z,101406.63
2023-01-09T03:01:16.210Z,101410.67
2023-01-09T03:03:57.881Z,101403.63
2023-01-09T03:06:28.202Z,101401.69
2023-01-09T03:08:56.645Z,101397.11
2023-01-09T03:11:23.621Z,101395.79
2023-01-09T03:14:06.093Z,101397.46
2023-01-09T03:16:35.752Z,101398.95
2023-01-09T03:19:04.394Z,101399.18
2023-01-09T03:21:31.342Z,101403.27
2023-01-09T03:23:59.830Z,101399.45
2023-01-09T03:26:26.961Z,101394.98
2023-01-09T03:28:53.919Z,101394.66
2023-01-09T03:31:20.958Z,101388.98
2023-01-09T03:33:48.318Z,101387.47
2023-01-09T03:36:16.538Z,101384.86
2023-01-09T03:38:43.635Z,101380.05
2023-01-09T03:41:10.598Z,101376.20
2023-01-09T03:43:37.707Z,101373.30
2023-01-09T03:46:05.745Z,101371.94
2023-01-09T03:48:32.750Z,101377.77
2023-01-09T03:50:59.803Z,101371.96
2023-01-09T03:53:27.859Z,101374.33
2023-01-09T03:55:56.340Z,101374.64
2023-01-09T03:58:23.767Z,101371.45
2023-01-09T04:00:51.194Z,101364.73
2023-01-09T04:03:20.371Z,101363.67
2023-01-09T04:05:48.254Z,101366.38
2023-01-09T04:08:15.477Z,101366.53
2023-01-09T04:10:48.409Z,101366.91
2023-01-09T04:13:15.476Z,101358.55
2023-01-09T04:15:42.453Z,101360.21
2023-01-09T04:18:09.465Z,101360.25
2023-01-09T04:20:36.465Z,101358.90
2023-01-09T04:23:03.414Z,101352.95
2023-01-09T04:25:30.482Z,101346.02
2023-01-09T04:27:57.552Z,101345.14
2023-01-09T04:30:24.693Z,101345.46
2023-01-09T06:07:23.802Z,101309.92
2023-01-09T06:09:50.812Z,101310.01
2023-01-09T06:12:17.753Z,101307.17
2023-01-09T06:14:44.654Z,101306.64
2023-01-09T06:17:12.031Z,101309.06
2023-01-09T06:19:38.955Z,101307.44
2023-01-09T06:22:05.881Z,101304.59
2023-01-09T06:24:32.811Z,101303.77
2023-01-09T06:26:59.744Z,101304.10
2023-01-09T06:29:26.709Z,101299.64
2023-01-09T06:31:53.712Z,101296.55
2023-01-09T06:34:20.625Z,101295.73
2023-01-09T06:36:47.615Z,101294.09
2023-01-09T06:39:14.636Z,101291.43
2023-01-09T06:41:41.768Z,101294.41
2023-01-09T06:44:08.787Z,101292.50
2023-01-09T06:46:35.695Z,101290.14
2023-01-09T06:49:02.613Z,101287.23
2023-01-09T06:51:29.533Z,101289.40
2023-01-09T06:53:56.428Z,101289.08
2023-01-09T06:56:23.394Z,101289.75
2023-01-09T06:58:50.423Z,101284.30
2023-01-09T07:01:17.490Z,101283.29
2023-01-09T07:03:45.223Z,101283.02
2023-01-09T07:06:12.170Z,101284.17
2023-01-09T07:08:39.195Z,101287.85
2023-01-09T07:11:06.129Z,101282.70
2023-01-09T07:13:33.057Z,101276.20
2023-01-09T07:16:00.108Z,101276.59
2023-01-09T07:18:27.117Z,101282.33
2023-01-09T07:20:54.077Z,101281.80
2023-01-09T07:23:21.041Z,101276.05
2023-01-09T07:25:48.265Z,101267.39
2023-01-09T07:28:15.206Z,101265.70
2023-01-09T07:30:42.141Z,101261.95
2023-01-09T07:33:09.103Z,101262.66
2023-01-09T07:35:36.102Z,101265.09
2023-01-09T07:38:02.992Z,101262.88
2023-01-09T07:40:30.045Z,101264.81
2023-01-09T07:42:57.046Z,101272.09
2023-01-09T07:45:23.954Z,101274.52
2023-01-09T07:47:52.500Z,101278.27
2023-01-09T07:50:19.905Z,101283.58
2023-01-09T07:52:46.932Z,101286.23
2023-01-09T07:55:16.094Z,101284.91
2023-01-09T07:57:47.810Z,101281.88
2023-01-09T08:00:15.065Z,101270.02
2023-01-09T08:02:42.077Z,101265.70
2023-01-09T08:05:13.771Z,101261.33
2023-01-09T08:07:41.234Z,101264.55
2023-01-09T08:10:10.686Z,101260.31
2023-01-09T08:12:37.691Z,101265.23
2023-01-09T08:15:05.059Z,101264.11
2023-01-09T08:17:32.506Z,101264.98
2023-01-09T08:19:59.426Z,101256.91
2023-01-09T08:22:26.369Z,101258.84
2023-01-09T08:24:53.275Z,101264.83
2023-01-09T08:27:20.198Z,101267.17
2023-01-09T08:29:47.103Z,101266.42
2023-01-09T08:32:14.056Z,101260.67
2023-01-09T08:34:41.036Z,101258.19
2023-01-09T08:37:08.005Z,101258.70
2023-01-09T08:39:36.202Z,101254.96
2023-01-09T08:42:21.833Z,101258.64
2023-01-09T08:45:07.527Z,101251.85
2023-01-09T08:47:34.552Z,101242.94
2023-01-09T08:50:01.570Z,101244.55
2023-01-09T08:52:30.949Z,101234.20
2023-01-09T08:54:57.873Z,101227.67
2023-01-09T08:57:24.974Z,101220.83
2023-01-09T08:59:54.290Z,101214.08
2023-01-09T09:02:21.264Z,101209.48
2023-01-09T09:04:51.903Z,101204.64
2023-01-09T09:07:26.907Z,101206.85
2023-01-09T09:09:54.620Z,101203.12
2023-01-09T09:12:21.987Z,101189.58
2023-01-09T09:15:07.733Z,101192.83
2023-01-09T09:17:34.750Z,101191.73
2023-01-09T09:20:01.672Z,101192.77
2023-01-09T09:22:28.578Z,101197.07
2023-01-09T09:24:55.543Z,101197.86
2023-01-09T09:27:22.495Z,101194.09
2023-01-09T09:29:49.411Z,101188.42
2023-01-09T09:32:16.374Z,101182.49
2023-01-09T09:34:43.270Z,101186.60
2023-01-09T09:37:10.282Z,101180.67
2023-01-09T09:39:37.367Z,101175.44
2023-01-09T09:42:52.103Z,101171.66
2023-01-09T09:45:37.297Z,101172.02
2023-01-09T09:48:43.411Z,101176.73
2023-01-09T09:51:35.364Z,101176.79
2023-01-09T09:54:12.287Z,101175.67
2023-01-09T09:56:51.878Z,101178.59
2023-01-09T09:59:20.472Z,101176.13
2023-01-09T10:02:05.070Z,101170.21
2023-01-09T10:04:32.970Z,101163.71
2023-01-09T10:07:06.770Z,101165.51
2023-01-09T10:09:36.724Z,101161.92
2023-01-09T10:12:27.728Z,101159.73
2023-01-09T10:15:09.924Z,101153.67
2023-01-09T10:17:36.875Z,101151.34
2023-01-09T10:20:34.189Z,101146.81
2023-01-09T10:23:07.577Z,101146.78
2023-01-09T10:26:05.397Z,101147.60
2023-01-09T10:28:46.573Z,101140.98
2023-01-09T10:31:52.944Z,101141.19
2023-01-09T10:34:36.889Z,101142.09
2023-01-09T10:37:11.873Z,101139.70
2023-01-09T10:39:52.702Z,101126.05
2023-01-09T10:42:37.507Z,101118.66
2023-01-09T10:45:12.891Z,101111.22
2023-01-09T10:47:39.891Z,101121.94
2023-01-09T10:50:22.832Z,101114.89
2023-01-09T10:52:54.761Z,101120.02
2023-01-09T10:55:54.263Z,101117.68
2023-01-09T10:58:22.083Z,101122.17
2023-01-09T11:00:50.071Z,101123.48
2023-01-09T11:03:19.510Z,101123.08
2023-01-09T11:05:54.226Z,101122.56
2023-01-09T11:08:29.567Z,101110.29
2023-01-09T11:11:00.698Z,101109.44
2023-01-09T11:13:33.315Z,101107.66
2023-01-09T11:16:22.764Z,101108.70
2023-01-09T11:18:50.308Z,101111.85
2023-01-09T11:21:33.550Z,101108.52
2023-01-09T11:24:19.029Z,101100.80
2023-01-09T11:26:46.716Z,101100.83
2023-01-09T11:29:18.992Z,101110.55
2023-01-09T11:31:59.672Z,101108.88
2023-01-09T11:34:31.936Z,101110.44
2023-01-09T11:37:09.963Z,101106.87
2023-01-09T11:39:41.502Z,101103.55
2023-01-09T11:42:18.771Z,101107.30
2023-01-09T18:22:51.873Z,101044.29
2023-01-09T18:25:19.024Z,101040.64
2023-01-09T18:27:46.919Z,101043.59
2023-01-09T18:30:14.365Z,101036.30
2023-01-09T18:32:41.539Z,101033.56
2023-01-09T18:35:09.492Z,101035.27
2023-01-09T18:37:37.294Z,101036.86
2023-01-09T18:40:05.226Z,101034.70
2023-01-09T18:42:32.360Z,101039.96
2023-01-09T18:44:59.411Z,101044.25
2023-01-09T18:47:26.463Z,101050.64
2023-01-09T18:49:53.560Z,101049.81
2023-01-09T18:52:20.681Z,101045.70
2023-01-09T18:54:47.665Z,101045.54
2023-01-09T18:57:14.864Z,101043.24
2023-01-09T18:59:41.916Z,101036.54
2023-01-09T19:02:24.324Z,101033.25
2023-01-09T19:04:51.374Z,101026.48
2023-01-09T19:07:18.427Z,101016.88
2023-01-09T19:09:45.586Z,101017.45
2023-01-09T19:12:12.625Z,101019.96
2023-01-09T19:14:39.692Z,101015.03
2023-01-09T19:17:06.724Z,101021.56
2023-01-09T19:19:34.296Z,101023.13
2023-01-09T19:22:01.441Z,101028.36
2023-01-09T19:24:28.693Z,101028.91
2023-01-09T19:26:55.745Z,101033.89
2023-01-09T19:29:22.799Z,101035.66
2023-01-09T19:31:52.485Z,101033.13
2023-01-09T19:34:21.110Z,101033.89
2023-01-09T19:36:48.173Z,101034.80
2023-01-09T19:39:15.728Z,101039.83
2023-01-09T19:41:42.964Z,101048.88
2023-01-09T19:44:11.131Z,101050.21
2023-01-09T19:46:38.333Z,101053.62
2023-01-09T19:49:06.373Z,101059.09
2023-01-09T19:51:35.948Z,101061.69
2023-01-09T19:56:32.229Z,101061.13
2023-01-09T19:59:00.610Z,101063.81
2023-01-09T20:01:41.998Z,101063.90
2023-01-09T20:04:13.917Z,101068.63
2023-01-09T20:06:43.926Z,101069.17
2023-01-09T22:39:58.390Z,101127.98
2023-01-09T22:42:25.432Z,101129.25
2023-01-09T22:44:52.510Z,101128.92
2023-01-09T22:47:19.513Z,101128.36
2023-01-09T22:49:52.745Z,101128.77
2023-01-09T22:52:20.678Z,101125.67
2023-01-09T22:54:48.300Z,101124.21
2023-01-09T22:57:15.317Z,101123.74
2023-01-09T22:59:42.419Z,101123.83
2023-01-09T23:02:09.453Z,101119.90
2023-01-09T23:04:36.431Z,101116.44
2023-01-09T23:07:03.426Z,101116.33
2023-01-09T23:09:30.372Z,101120.69
2023-01-09T23:12:03.499Z,101119.44
2023-01-09T23:14:31.905Z,101121.15
2023-01-09T23:16:58.974Z,101122.07
2023-01-09T23:19:25.931Z,101123.23
2023-01-09T23:21:52.986Z,101123.00
2023-01-09T23:24:19.956Z,101125.09
2023-01-09T23:26:47.824Z,101121.27
2023-01-09T23:29:14.969Z,101123.23
2023-01-09T23:31:42.069Z,101119.52
2023-01-09T23:34:09.271Z,101129.04
2023-01-09T23:36:36.318Z,101134.09
2023-01-09T23:39:04.429Z,101135.97
2023-01-09T23:41:50.138Z,101138.13
2023-01-09T23:44:17.222Z,101131.83
2023-01-09T23:46:44.149Z,101129.52
2023-01-09T23:49:11.103Z,101123.11
2023-01-09T23:51:38.043Z,101118.23
2023-01-09T23:54:05.130Z,101118.20
2023-01-09T23:56:34.057Z,101123.71
2023-01-09T23:59:02.145Z,101127.95
